Time;durP1;ratioP1;P1;durP2;ratioP2;P2;SDS_P1;SDS_P2;PMS_P1;PMS_P2;Temp;Humidity;BMP_temperature;BMP_pressure;BME280_temperature;BME280_humidity;BME280_pressure;Samples;Min_cycle;Max_cycle;Signal;HPM_P1;HPM_P2
2021/01/28 00:01:38;;;;;;;;;;;6.70;99.90;;;;;;5120422;27;19919;-83
2021/01/28 00:04:03;;;;;;;;;;;6.70;99.90;;;;;;5102661;27;19911;-83
2021/01/28 00:06:29;;;;;;;;;;;6.70;99.90;;;;;;5108052;27;19943;-83
2021/01/28 00:08:54;;;;;;;;;;;6.70;99.90;;;;;;5124074;27;19912;-83
2021/01/28 00:11:20;;;;;;;;;;;6.70;99.90;;;;;;5106621;27;19907;-83
2021/01/28 00:13:45;;;;;;;;;;;6.70;99.90;;;;;;5125725;27;19908;-83
2021/01/28 00:16:11;;;;;;;;;;;6.70;99.90;;;;;;5128436;27;19914;-83
2021/01/28 00:18:37;;;;;;;;;;;6.70;99.90;;;;;;5107049;27;19915;-83
2021/01/28 00:21:02;;;;;;;;;;;6.70;99.90;;;;;;5105606;27;19915;-83
2021/01/28 00:23:28;;;;;;;;;;;6.70;99.90;;;;;;5123585;27;19961;-83
2021/01/28 00:25:53;;;;;;;;;;;6.70;99.90;;;;;;5107907;28;19916;-83
2021/01/28 00:28:20;;;;;;;;;;;6.70;99.90;;;;;;5122106;27;20093;-83
2021/01/28 00:30:47;;;;;;;;;;;6.70;99.90;;;;;;5106649;28;19915;-83
2021/01/28 00:33:14;;;;;;;;;;;6.70;99.90;;;;;;5125688;27;19914;-83
2021/01/28 00:35:40;;;;;;;;;;;6.80;99.90;;;;;;5121926;28;19908;-83
2021/01/28 00:38:09;;;;;;;;;;;6.80;99.90;;;;;;5104093;28;19915;-83
2021/01/28 00:40:35;;;;;;;;;;;6.80;99.90;;;;;;5102819;28;19908;-83
2021/01/28 00:43:00;;;;;;;;;;;6.80;99.90;;;;;;5126470;28;19907;-83
2021/01/28 00:45:27;;;;;;;;;;;6.80;99.90;;;;;;5124977;28;19915;-83
2021/01/28 00:47:53;;;;;;;;;;;6.80;99.90;;;;;;5101720;28;20320;-83
2021/01/28 00:50:19;;;;;;;;;;;6.80;99.90;;;;;;5105812;28;19912;-83
2021/01/28 00:52:45;;;;;;;;;;;6.80;99.90;;;;;;5122001;28;20370;-83
2021/01/28 00:55:12;;;;;;;;;;;6.70;99.90;;;;;;5123185;28;19914;-83
2021/01/28 00:57:37;;;;;;;;;;;6.70;99.90;;;;;;5106484;28;19915;-83
2021/01/28 01:00:09;;;;;;;;;;;6.70;99.90;;;;;;5122646;28;20260;-83
2021/01/28 01:02:34;;;;;;;;;;;6.70;99.90;;;;;;5122984;28;19908;-83
2021/01/28 01:05:00;;;;;;;;;;;6.70;99.90;;;;;;5105244;28;19914;-83
2021/01/28 01:07:25;;;;;;;;;;;6.70;99.90;;;;;;5122092;28;19972;-83
2021/01/28 01:09:51;;;;;;;;;;;6.70;99.90;;;;;;5105482;28;19990;-83
2021/01/28 01:12:16;;;;;;;;;;;6.70;99.90;;;;;;5121193;28;19973;-83
2021/01/28 01:14:42;;;;;;;;;;;6.70;99.90;;;;;;5123941;28;19933;-83
2021/01/28 01:17:07;;;;;;;;;;;6.70;99.90;;;;;;5125765;28;19912;-83
2021/01/28 01:19:33;;;;;;;;;;;6.80;99.90;;;;;;5123662;28;19907;-83
2021/01/28 01:21:58;;;;;;;;;;;6.70;99.90;;;;;;5104206;28;19939;-83
2021/01/28 01:24:24;;;;;;;;;;;6.80;99.90;;;;;;5122356;28;19915;-83
2021/01/28 01:26:49;;;;;;;;;;;6.70;99.90;;;;;;5123211;28;19952;-83
2021/01/28 01:29:15;;;;;;;;;;;6.80;99.90;;;;;;5123772;28;20052;-83
2021/01/28 01:31:40;;;;;;;;;;;6.80;99.90;;;;;;5105260;28;19915;-83
2021/01/28 01:34:05;;;;;;;;;;;6.70;99.90;;;;;;5123673;28;19914;-83
2021/01/28 01:36:31;;;;;;;;;;;6.80;99.90;;;;;;5104697;28;19927;-83
2021/01/28 01:38:56;;;;;;;;;;;6.70;99.90;;;;;;5123441;28;20052;-83
2021/01/28 01:41:27;;;;;;;;;;;6.70;99.90;;;;;;5125087;27;20316;-83
2021/01/28 01:43:56;;;;;;;;;;;6.70;99.90;;;;;;5127449;27;19912;-83
2021/01/28 01:46:22;;;;;;;;;;;6.70;99.90;;;;;;5124965;27;19908;-82
2021/01/28 01:48:50;;;;;;;;;;;6.70;99.90;;;;;;5124010;27;19912;-83
2021/01/28 01:51:22;;;;;;;;;;;6.70;99.90;;;;;;5124729;27;19914;-83
2021/01/28 01:53:51;;;;;;;;;;;6.70;99.90;;;;;;5111683;27;19933;-83
2021/01/28 01:56:19;;;;;;;;;;;6.70;99.90;;;;;;5126102;27;19907;-83
2021/01/28 01:58:48;;;;;;;;;;;6.70;99.90;;;;;;5113093;27;19908;-83
2021/01/28 02:01:13;;;;;;;;;;;6.70;99.90;;;;;;5127395;27;19927;-83
2021/01/28 02:03:40;;;;;;;;;;;6.60;99.90;;;;;;5125033;27;19908;-83
2021/01/28 02:06:13;;;;;;;;;;;6.70;99.90;;;;;;5127828;27;19908;-83
2021/01/28 02:08:39;;;;;;;;;;;6.60;99.90;;;;;;5128373;27;19970;-83
2021/01/28 02:11:08;;;;;;;;;;;6.60;99.90;;;;;;5107381;28;20381;-83
2021/01/28 02:13:34;;;;;;;;;;;6.60;99.90;;;;;;5127118;27;19918;-83
2021/01/28 02:15:59;;;;;;;;;;;6.60;99.90;;;;;;5126746;27;19907;-83
2021/01/28 02:18:25;;;;;;;;;;;6.60;99.90;;;;;;5109501;27;20278;-83
2021/01/28 02:20:56;;;;;;;;;;;6.60;99.90;;;;;;5108477;27;19907;-83
2021/01/28 02:23:33;;;;;;;;;;;6.60;99.90;;;;;;5101819;27;19955;-83
2021/01/28 02:25:58;;;;;;;;;;;6.60;99.90;;;;;;5101285;28;19916;-82
2021/01/28 02:28:24;;;;;;;;;;;6.70;99.90;;;;;;5126492;27;19915;-83
2021/01/28 02:30:55;;;;;;;;;;;6.60;99.90;;;;;;5125069;27;20002;-83
2021/01/28 02:33:34;;;;;;;;;;;6.60;99.90;;;;;;5102793;27;19908;-83
2021/01/28 02:36:00;;;;;;;;;;;6.60;99.90;;;;;;5124060;27;19915;-83
2021/01/28 02:38:25;;;;;;;;;;;6.60;99.90;;;;;;5124621;27;19908;-83
2021/01/28 02:40:51;;;;;;;;;;;6.60;99.90;;;;;;5106567;27;20332;-83
2021/01/28 02:43:16;;;;;;;;;;;6.60;99.90;;;;;;5125174;27;19930;-83
2021/01/28 02:45:42;;;;;;;;;;;6.50;99.90;;;;;;5111464;27;19908;-83
2021/01/28 02:48:08;;;;;;;;;;;6.50;99.90;;;;;;5125558;27;20355;-83
2021/01/28 02:50:34;;;;;;;;;;;6.50;99.90;;;;;;5123427;27;20101;-83
2021/01/28 02:53:02;;;;;;;;;;;6.50;99.90;;;;;;5107459;27;19950;-84
2021/01/28 02:55:29;;;;;;;;;;;6.50;99.90;;;;;;5105913;27;20350;-83
2021/01/28 02:57:55;;;;;;;;;;;6.60;99.90;;;;;;5106079;27;19915;-83
2021/01/28 03:00:24;;;;;;;;;;;6.60;99.90;;;;;;5124891;27;20363;-83
2021/01/28 03:02:50;;;;;;;;;;;6.60;99.90;;;;;;5124235;27;19907;-83
2021/01/28 03:05:16;;;;;;;;;;;6.60;99.90;;;;;;5123858;27;19912;-83
2021/01/28 03:07:41;;;;;;;;;;;6.50;99.90;;;;;;5106103;27;19998;-83
2021/01/28 03:10:07;;;;;;;;;;;6.60;99.90;;;;;;5123960;27;19990;-83
2021/01/28 03:12:32;;;;;;;;;;;6.60;99.90;;;;;;5107484;27;19961;-83
2021/01/28 03:14:58;;;;;;;;;;;6.50;99.90;;;;;;5107728;27;19941;-83
2021/01/28 03:17:23;;;;;;;;;;;6.60;99.90;;;;;;5104991;27;19916;-83
2021/01/28 03:19:49;;;;;;;;;;;6.60;99.90;;;;;;5107387;27;19917;-83
2021/01/28 03:22:14;;;;;;;;;;;6.60;99.90;;;;;;5101615;28;20387;-83
2021/01/28 03:24:39;;;;;;;;;;;6.60;99.90;;;;;;5122818;27;20374;-83
2021/01/28 03:27:05;;;;;;;;;;;6.50;99.90;;;;;;5124783;27;19907;-83
2021/01/28 03:29:30;;;;;;;;;;;6.50;99.90;;;;;;5097758;28;19962;-83
2021/01/28 03:31:56;;;;;;;;;;;6.50;99.90;;;;;;5124761;27;19920;-83
2021/01/28 03:34:21;;;;;;;;;;;6.50;99.90;;;;;;5107351;27;20371;-83
2021/01/28 03:36:47;;;;;;;;;;;6.50;99.90;;;;;;5104596;27;20061;-83
2021/01/28 03:39:13;;;;;;;;;;;6.50;99.90;;;;;;5124684;27;19915;-83
2021/01/28 03:41:38;;;;;;;;;;;6.50;99.90;;;;;;5102442;27;19916;-83
2021/01/28 03:44:04;;;;;;;;;;;6.50;99.90;;;;;;5107022;27;19911;-83
2021/01/28 03:46:29;;;;;;;;;;;6.50;99.90;;;;;;5097075;27;19999;-83
2021/01/28 03:48:55;;;;;;;;;;;6.40;99.90;;;;;;5107306;27;19926;-83
2021/01/28 03:51:20;;;;;;;;;;;6.40;99.90;;;;;;5125662;27;19968;-83
2021/01/28 03:53:46;;;;;;;;;;;6.40;99.90;;;;;;5122792;27;20364;-83
2021/01/28 03:56:11;;;;;;;;;;;6.40;99.90;;;;;;5122971;27;20377;-83
2021/01/28 03:58:36;;;;;;;;;;;6.40;99.90;;;;;;5105213;27;19931;-83
2021/01/28 04:01:03;;;;;;;;;;;6.40;99.90;;;;;;5124919;27;19919;-83
2021/01/28 04:03:28;;;;;;;;;;;6.40;99.90;;;;;;5122174;27;19998;-83
2021/01/28 04:05:54;;;;;;;;;;;6.40;99.90;;;;;;5122787;27;19950;-83
2021/01/28 04:08:19;;;;;;;;;;;6.40;99.90;;;;;;5126777;27;20273;-84
2021/01/28 04:10:44;;;;;;;;;;;6.40;99.90;;;;;;5123389;27;19907;-84
2021/01/28 04:13:10;;;;;;;;;;;6.40;99.90;;;;;;5110968;27;20355;-83
2021/01/28 04:15:35;;;;;;;;;;;6.40;99.90;;;;;;5107561;27;19953;-83
2021/01/28 04:18:01;;;;;;;;;;;6.40;99.90;;;;;;5125280;27;19914;-84
2021/01/28 04:20:32;;;;;;;;;;;6.40;99.90;;;;;;5104608;27;19959;-84
2021/01/28 04:22:57;;;;;;;;;;;6.40;99.90;;;;;;5104802;28;19915;-84
2021/01/28 04:25:24;;;;;;;;;;;6.40;99.90;;;;;;5121950;27;19908;-84
2021/01/28 04:27:49;;;;;;;;;;;6.40;99.90;;;;;;5108261;28;20294;-84
2021/01/28 04:30:16;;;;;;;;;;;6.40;99.90;;;;;;5104736;28;19919;-84
2021/01/28 04:32:42;;;;;;;;;;;6.40;99.90;;;;;;5123736;27;19912;-84
2021/01/28 04:35:08;;;;;;;;;;;6.40;99.90;;;;;;5125281;27;20006;-84
2021/01/28 04:37:34;;;;;;;;;;;6.40;99.90;;;;;;5106233;28;19908;-84
2021/01/28 04:39:59;;;;;;;;;;;6.40;99.90;;;;;;5120118;28;19908;-84
2021/01/28 04:42:54;;;;;;;;;;;6.40;99.90;;;;;;5105415;28;19908;-84
2021/01/28 04:45:21;;;;;;;;;;;6.40;99.90;;;;;;5078616;28;20010;-84
2021/01/28 04:47:51;;;;;;;;;;;6.40;99.90;;;;;;5127093;28;19907;-84
2021/01/28 04:50:36;;;;;;;;;;;6.40;99.90;;;;;;5125030;28;19957;-84
2021/01/28 04:53:04;;;;;;;;;;;6.40;99.90;;;;;;5121917;28;19908;-84
2021/01/28 04:55:39;;;;;;;;;;;6.40;99.90;;;;;;5121924;28;19998;-84
2021/01/28 04:58:05;;;;;;;;;;;6.40;99.90;;;;;;5123232;28;20015;-84
2021/01/28 05:00:30;;;;;;;;;;;6.40;99.90;;;;;;5124736;28;20386;-83
2021/01/28 05:03:01;;;;;;;;;;;6.40;99.90;;;;;;5123175;28;20359;-84
2021/01/28 05:05:27;;;;;;;;;;;6.40;99.90;;;;;;5103532;28;19915;-84
2021/01/28 05:07:52;;;;;;;;;;;6.30;99.90;;;;;;5122310;28;20010;-84
2021/01/28 05:10:23;;;;;;;;;;;6.40;99.90;;;;;;5126315;28;20336;-83
2021/01/28 05:12:53;;;;;;;;;;;6.30;99.90;;;;;;5121491;28;19912;-84
2021/01/28 05:15:20;;;;;;;;;;;6.30;99.90;;;;;;5124789;27;19908;-84
2021/01/28 05:17:59;;;;;;;;;;;6.30;99.90;;;;;;5130740;27;19907;-83
2021/01/28 05:20:25;;;;;;;;;;;6.20;99.90;;;;;;5125347;27;19911;-84
2021/01/28 05:23:02;;;;;;;;;;;6.20;99.90;;;;;;5125833;27;19907;-84
2021/01/28 05:25:29;;;;;;;;;;;6.20;99.90;;;;;;5124740;27;19915;-84
2021/01/28 05:27:54;;;;;;;;;;;6.20;99.90;;;;;;5127882;27;19915;-84
2021/01/28 05:30:39;;;;;;;;;;;6.20;99.90;;;;;;5125958;27;20359;-84
2021/01/28 05:33:27;;;;;;;;;;;6.20;99.90;;;;;;5130053;27;19968;-84
2021/01/28 05:36:10;;;;;;;;;;;6.20;99.90;;;;;;5127511;27;19907;-84
2021/01/28 05:38:37;;;;;;;;;;;6.20;99.90;;;;;;5127816;27;19908;-84
2021/01/28 05:41:03;;;;;;;;;;;6.20;99.90;;;;;;5107867;27;19983;-84
2021/01/28 05:43:28;;;;;;;;;;;6.20;99.90;;;;;;5126459;27;19961;-84
2021/01/28 05:45:54;;;;;;;;;;;6.20;99.90;;;;;;5126815;27;20290;-84
2021/01/28 05:48:19;;;;;;;;;;;6.20;99.90;;;;;;5100485;27;19927;-84
2021/01/28 05:50:44;;;;;;;;;;;6.10;99.90;;;;;;5116978;27;19915;-84
2021/01/28 05:53:12;;;;;;;;;;;6.10;99.90;;;;;;5110248;27;19915;-84
2021/01/28 05:55:37;;;;;;;;;;;6.10;99.90;;;;;;5127634;27;19950;-84
2021/01/28 05:58:05;;;;;;;;;;;6.10;99.90;;;;;;5109237;27;19947;-84
2021/01/28 06:00:35;;;;;;;;;;;6.10;99.90;;;;;;5126222;27;19923;-84
2021/01/28 06:03:06;;;;;;;;;;;6.10;99.90;;;;;;5111573;27;19915;-83
2021/01/28 06:05:41;;;;;;;;;;;6.00;99.90;;;;;;5113284;27;19908;-83
2021/01/28 06:08:09;;;;;;;;;;;6.00;99.90;;;;;;5124746;27;19911;-83
2021/01/28 06:10:49;;;;;;;;;;;6.00;99.90;;;;;;5113448;27;20006;-83
2021/01/28 06:13:23;;;;;;;;;;;6.00;99.90;;;;;;5104614;27;19980;-83
2021/01/28 06:15:55;;;;;;;;;;;6.00;99.90;;;;;;5123028;27;19957;-83
2021/01/28 06:18:36;;;;;;;;;;;6.00;99.90;;;;;;5106094;28;19929;-83
2021/01/28 06:21:01;;;;;;;;;;;6.00;99.90;;;;;;5105717;27;19918;-83
2021/01/28 06:23:27;;;;;;;;;;;6.00;99.90;;;;;;5122201;27;19911;-83
2021/01/28 06:26:11;;;;;;;;;;;6.00;99.90;;;;;;5115514;28;19961;-83
2021/01/28 06:28:36;;;;;;;;;;;6.00;99.90;;;;;;5115199;28;19948;-84
2021/01/28 06:31:02;;;;;;;;;;;6.00;99.90;;;;;;5120954;27;19908;-84
2021/01/28 06:33:38;;;;;;;;;;;6.00;99.90;;;;;;5136204;27;19911;-85
2021/01/28 06:36:13;;;;;;;;;;;6.00;99.90;;;;;;5118099;27;20285;-85
2021/01/28 06:38:47;;;;;;;;;;;6.00;99.90;;;;;;5136611;27;19907;-85
2021/01/28 06:41:16;;;;;;;;;;;6.00;99.90;;;;;;5118170;27;19926;-86
2021/01/28 06:43:48;;;;;;;;;;;6.00;99.90;;;;;;5118150;27;19907;-84
2021/01/28 06:46:32;;;;;;;;;;;6.00;99.90;;;;;;5118468;27;19915;-86
2021/01/28 06:49:07;;;;;;;;;;;6.00;99.90;;;;;;5110885;27;19911;-86
2021/01/28 06:51:51;;;;;;;;;;;6.00;99.90;;;;;;5124267;27;19915;-85
2021/01/28 06:54:40;;;;;;;;;;;6.00;99.90;;;;;;5126552;27;19911;-86
2021/01/28 06:57:14;;;;;;;;;;;6.00;99.90;;;;;;5103903;28;20317;-87
2021/01/28 06:59:49;;;;;;;;;;;6.00;99.90;;;;;;5097687;28;19911;-86
2021/01/28 07:02:22;;;;;;;;;;;6.00;99.90;;;;;;5097890;28;19958;-87
2021/01/28 07:04:52;;;;;;;;;;;6.00;99.90;;;;;;5097603;28;20416;-87
2021/01/28 07:07:20;;;;;;;;;;;6.00;99.90;;;;;;5097664;28;19908;-87
2021/01/28 07:09:55;;;;;;;;;;;6.00;99.90;;;;;;5097409;28;20011;-88
2021/01/28 07:12:23;;;;;;;;;;;6.00;99.90;;;;;;5097711;28;19970;-88
2021/01/28 07:14:49;;;;;;;;;;;6.00;99.90;;;;;;5097514;28;19908;-87
2021/01/28 07:17:17;;;;;;;;;;;6.00;99.90;;;;;;5097303;28;19958;-87
2021/01/28 07:19:49;;;;;;;;;;;6.00;99.90;;;;;;5097321;28;19908;-87
2021/01/28 07:22:16;;;;;;;;;;;6.00;99.90;;;;;;5097348;28;19919;-86
2021/01/28 07:24:42;;;;;;;;;;;6.00;99.90;;;;;;5097350;28;19907;-87
2021/01/28 07:27:09;;;;;;;;;;;6.00;99.90;;;;;;5097624;28;19915;-87
2021/01/28 07:29:37;;;;;;;;;;;6.00;99.90;;;;;;5115522;28;19954;-87
2021/01/28 07:32:04;;;;;;;;;;;5.90;99.90;;;;;;5099561;28;19907;-88
2021/01/28 07:34:29;;;;;;;;;;;5.90;99.90;;;;;;5097730;28;19961;-88
2021/01/28 07:36:59;;;;;;;;;;;5.90;99.90;;;;;;5101910;28;19912;-88
2021/01/28 07:39:30;;;;;;;;;;;5.90;99.90;;;;;;5108233;27;19915;-88
2021/01/28 07:42:00;;;;;;;;;;;5.90;99.90;;;;;;5109256;27;19908;-89
2021/01/28 07:44:34;;;;;;;;;;;5.90;99.90;;;;;;5105989;28;20424;-88
2021/01/28 07:47:00;;;;;;;;;;;5.90;99.90;;;;;;5107739;27;19953;-89
2021/01/28 07:49:30;;;;;;;;;;;5.90;99.90;;;;;;5126984;27;19911;-88
2021/01/28 07:52:02;;;;;;;;;;;5.90;99.90;;;;;;5110750;27;20394;-88
2021/01/28 07:54:27;;;;;;;;;;;5.90;99.90;;;;;;5104191;27;19965;-88
2021/01/28 07:56:54;;;;;;;;;;;5.80;99.90;;;;;;5117436;27;19911;-88
2021/01/28 07:59:34;;;;;;;;;;;5.90;99.90;;;;;;5116635;27;19983;-88
2021/01/28 08:02:15;;;;;;;;;;;5.90;99.90;;;;;;5101717;27;20011;-88
2021/01/28 08:04:42;;;;;;;;;;;5.90;99.90;;;;;;5111178;27;19960;-88
2021/01/28 08:07:09;;;;;;;;;;;5.90;99.90;;;;;;5112473;27;19907;-88
2021/01/28 08:09:48;;;;;;;;;;;5.90;99.90;;;;;;5120009;27;20010;-88
2021/01/28 08:12:19;;;;;;;;;;;5.90;99.90;;;;;;5102284;28;20224;-88
2021/01/28 08:14:44;;;;;;;;;;;5.90;99.90;;;;;;5124652;27;19912;-89
2021/01/28 08:17:11;;;;;;;;;;;5.90;99.90;;;;;;5104779;27;19915;-88
2021/01/28 08:19:37;;;;;;;;;;;5.90;99.90;;;;;;5106256;27;19908;-88
2021/01/28 08:22:11;;;;;;;;;;;5.90;99.90;;;;;;5105462;28;19915;-88
2021/01/28 08:24:36;;;;;;;;;;;5.90;99.90;;;;;;5106079;27;20351;-89
2021/01/28 08:27:09;;;;;;;;;;;5.90;99.90;;;;;;5108259;27;19908;-89
2021/01/28 08:29:35;;;;;;;;;;;5.90;99.90;;;;;;5104561;27;19919;-88
2021/01/28 08:32:01;;;;;;;;;;;5.90;99.90;;;;;;5095370;28;19908;-89
2021/01/28 08:34:29;;;;;;;;;;;5.90;99.90;;;;;;5098172;28;19908;-90
2021/01/28 08:37:05;;;;;;;;;;;5.90;99.90;;;;;;5120203;27;19915;-88
2021/01/28 08:39:31;;;;;;;;;;;5.90;99.90;;;;;;5107347;28;19907;-88
2021/01/28 08:42:06;;;;;;;;;;;5.90;99.90;;;;;;5104042;28;19969;-87
2021/01/28 08:44:33;;;;;;;;;;;5.90;99.90;;;;;;5104004;28;19923;-90
2021/01/28 08:47:34;;;;;;;;;;;5.90;99.90;;;;;;5103286;28;19939;-89
2021/01/28 08:50:06;;;;;;;;;;;5.90;99.90;;;;;;5083887;27;19915;-88
2021/01/28 08:52:31;;;;;;;;;;;5.90;99.90;;;;;;5125934;27;19930;-88
2021/01/28 08:54:57;;;;;;;;;;;5.90;99.90;;;;;;5098167;28;20363;-87
2021/01/28 08:57:24;;;;;;;;;;;5.90;99.90;;;;;;5100332;28;19915;-88
2021/01/28 09:00:00;;;;;;;;;;;5.90;99.90;;;;;;5118747;27;19918;-87
2021/01/28 09:02:30;;;;;;;;;;;5.90;99.90;;;;;;5120406;27;19919;-89
2021/01/28 09:05:18;;;;;;;;;;;6.00;99.90;;;;;;5135369;27;19912;-88
2021/01/28 09:07:49;;;;;;;;;;;5.90;99.90;;;;;;5106922;27;19998;-88
2021/01/28 09:10:27;;;;;;;;;;;6.00;99.90;;;;;;5112811;27;19915;-89
2021/01/28 09:12:52;;;;;;;;;;;5.90;99.90;;;;;;5111950;27;19908;-90
2021/01/28 09:15:21;;;;;;;;;;;5.90;99.90;;;;;;5108826;27;20252;-88
2021/01/28 09:17:47;;;;;;;;;;;5.90;99.90;;;;;;5109994;27;19926;-90
2021/01/28 09:20:30;;;;;;;;;;;5.90;99.90;;;;;;5128241;27;19912;-89
2021/01/28 09:23:06;;;;;;;;;;;5.90;99.90;;;;;;5108592;28;20275;-89
2021/01/28 09:25:32;;;;;;;;;;;5.90;99.90;;;;;;5109469;27;19914;-89
2021/01/28 09:28:02;;;;;;;;;;;5.90;99.90;;;;;;5111463;27;19915;-90
2021/01/28 09:30:38;;;;;;;;;;;5.90;99.90;;;;;;5114216;27;19907;-89
2021/01/28 09:33:22;;;;;;;;;;;5.90;99.90;;;;;;5113885;28;19911;-89
2021/01/28 09:36:01;;;;;;;;;;;5.90;99.90;;;;;;5108854;27;19915;-90
2021/01/28 09:38:27;;;;;;;;;;;5.90;99.90;;;;;;5100130;28;19930;-91
2021/01/28 09:41:07;;;;;;;;;;;6.00;99.90;;;;;;5102333;27;19911;-90
2021/01/28 09:43:33;;;;;;;;;;;5.90;99.90;;;;;;5105981;27;19908;-90
2021/01/28 09:46:51;;;;;;;;;;;6.00;99.90;;;;;;5103359;28;19914;-92
2021/01/28 09:49:09;;;;;;;;;;;6.00;99.90;;;;;;5114905;28;19918;-91
2021/01/28 09:51:36;;;;;;;;;;;5.90;99.90;;;;;;5099978;28;20010;-91
2021/01/28 09:54:10;;;;;;;;;;;5.90;99.90;;;;;;5134070;27;19908;-90
2021/01/28 09:56:36;;;;;;;;;;;6.00;99.90;;;;;;5100576;27;19998;-91
2021/01/28 09:59:08;;;;;;;;;;;6.00;99.90;;;;;;5120173;27;19958;-91
2021/01/28 10:01:34;;;;;;;;;;;6.00;99.90;;;;;;5112445;28;19946;-90
2021/01/28 10:03:59;;;;;;;;;;;6.00;99.90;;;;;;5100512;27;19908;-90
2021/01/28 10:06:25;;;;;;;;;;;5.90;99.90;;;;;;5109400;28;19912;-90
2021/01/28 10:08:50;;;;;;;;;;;6.00;99.90;;;;;;5107399;27;19943;-90
2021/01/28 10:11:16;;;;;;;;;;;6.00;99.90;;;;;;5124933;27;19907;-90
2021/01/28 10:13:42;;;;;;;;;;;6.00;99.90;;;;;;5124564;27;19911;-90
2021/01/28 10:16:20;;;;;;;;;;;6.00;99.90;;;;;;5126122;27;19907;-91
2021/01/28 10:18:46;;;;;;;;;;;6.00;99.90;;;;;;5111708;28;19914;-90
2021/01/28 10:21:33;;;;;;;;;;;6.00;99.90;;;;;;5099424;28;20002;-90
2021/01/28 10:23:59;;;;;;;;;;;6.00;99.90;;;;;;5099659;28;19912;-90
2021/01/28 10:26:24;;;;;;;;;;;6.00;99.90;;;;;;5112492;27;19911;-91
2021/01/28 10:28:50;;;;;;;;;;;6.00;99.90;;;;;;5102834;28;19923;-90
2021/01/28 10:31:16;;;;;;;;;;;6.00;99.90;;;;;;5099167;28;19908;-90
2021/01/28 10:33:41;;;;;;;;;;;6.00;99.90;;;;;;5099111;28;20416;-91
2021/01/28 10:36:08;;;;;;;;;;;6.00;99.90;;;;;;5099367;28;19908;-90
2021/01/28 10:38:39;;;;;;;;;;;6.00;99.90;;;;;;5099079;28;19908;-90
2021/01/28 10:41:23;;;;;;;;;;;6.00;99.90;;;;;;5106984;27;19911;-90
2021/01/28 10:43:49;;;;;;;;;;;6.00;99.90;;;;;;5106839;27;19934;-90
2021/01/28 10:46:14;;;;;;;;;;;5.90;99.90;;;;;;5119396;27;20429;-91
2021/01/28 10:48:40;;;;;;;;;;;5.90;99.90;;;;;;5112661;27;19919;-92
2021/01/28 10:51:05;;;;;;;;;;;5.90;99.90;;;;;;5101359;27;19907;-90
2021/01/28 10:56:17;;;;;;;;;;;6.00;99.90;;;;;;5124686;27;20426;-91
2021/01/28 10:58:42;;;;;;;;;;;5.90;99.90;;;;;;5108614;27;19973;-91
2021/01/28 11:04:43;;;;;;;;;;;6.00;99.90;;;;;;5023834;28;19950;-88
2021/01/28 11:07:08;;;;;;;;;;;6.00;99.90;;;;;;4997152;28;19916;-89
2021/01/28 11:09:35;;;;;;;;;;;6.00;99.90;;;;;;5089570;28;19912;-87
2021/01/28 11:12:05;;;;;;;;;;;6.00;99.90;;;;;;5131421;27;19908;-87
2021/01/28 11:14:30;;;;;;;;;;;6.00;99.90;;;;;;5131926;27;19908;-87
2021/01/28 11:16:56;;;;;;;;;;;6.00;99.90;;;;;;5116685;28;19915;-88
2021/01/28 11:19:21;;;;;;;;;;;6.10;99.90;;;;;;5115313;27;20394;-88
2021/01/28 11:21:53;;;;;;;;;;;6.10;99.90;;;;;;5118770;27;20282;-88
2021/01/28 11:24:18;;;;;;;;;;;6.10;99.90;;;;;;5136491;27;19908;-88
2021/01/28 11:26:44;;;;;;;;;;;6.10;99.90;;;;;;5117826;27;19913;-88
2021/01/28 11:29:09;;;;;;;;;;;6.10;99.90;;;;;;5117594;27;20013;-88
2021/01/28 11:31:38;;;;;;;;;;;6.10;99.90;;;;;;5116760;27;19907;-88
2021/01/28 11:34:04;;;;;;;;;;;6.10;99.90;;;;;;5104076;28;19931;-88
2021/01/28 11:36:29;;;;;;;;;;;6.10;99.90;;;;;;5115245;28;20256;-88
2021/01/28 11:38:55;;;;;;;;;;;6.10;99.90;;;;;;5100400;28;19919;-89
2021/01/28 11:41:20;;;;;;;;;;;6.10;99.90;;;;;;5097461;28;20061;-88
2021/01/28 11:43:46;;;;;;;;;;;6.10;99.90;;;;;;5101490;27;19911;-87
2021/01/28 11:46:11;;;;;;;;;;;6.10;99.90;;;;;;5106322;27;19998;-88
2021/01/28 11:48:37;;;;;;;;;;;6.10;99.90;;;;;;5122734;27;20011;-87
2021/01/28 11:51:03;;;;;;;;;;;6.10;99.90;;;;;;5106680;27;20316;-88
2021/01/28 11:53:28;;;;;;;;;;;6.20;99.90;;;;;;5108230;28;20003;-88
2021/01/28 11:55:54;;;;;;;;;;;6.10;99.90;;;;;;5096358;28;19911;-88
2021/01/28 11:58:19;;;;;;;;;;;6.20;99.90;;;;;;5101243;28;19908;-89
2021/01/28 12:00:45;;;;;;;;;;;6.20;99.90;;;;;;5098653;28;19924;-88
2021/01/28 12:03:11;;;;;;;;;;;6.20;99.90;;;;;;5104117;28;19908;-88
2021/01/28 12:05:36;;;;;;;;;;;6.20;99.90;;;;;;5094018;28;19930;-87
2021/01/28 12:08:02;;;;;;;;;;;6.20;99.90;;;;;;5097358;28;20340;-88
2021/01/28 12:10:28;;;;;;;;;;;6.20;99.90;;;;;;5099199;28;19908;-87
2021/01/28 12:12:54;;;;;;;;;;;6.20;99.90;;;;;;5098800;28;19998;-88
2021/01/28 12:15:20;;;;;;;;;;;6.20;99.90;;;;;;5100820;28;19959;-86
2021/01/28 12:17:46;;;;;;;;;;;6.30;99.90;;;;;;5099240;28;19908;-87
2021/01/28 12:20:12;;;;;;;;;;;6.30;99.90;;;;;;5095886;28;20397;-86
2021/01/28 12:22:38;;;;;;;;;;;6.30;99.90;;;;;;5099889;28;20272;-87
2021/01/28 12:25:07;;;;;;;;;;;6.30;99.90;;;;;;5103169;28;19908;-87
2021/01/28 12:27:32;;;;;;;;;;;6.30;99.90;;;;;;5093892;28;20387;-86
2021/01/28 12:30:00;;;;;;;;;;;6.30;99.90;;;;;;5094993;28;19942;-86
2021/01/28 12:32:26;;;;;;;;;;;6.20;99.90;;;;;;5099199;28;19912;-85
2021/01/28 12:34:51;;;;;;;;;;;6.30;99.90;;;;;;5097622;28;20041;-86
2021/01/28 12:37:17;;;;;;;;;;;6.20;99.90;;;;;;5102166;28;20419;-86
2021/01/28 12:39:42;;;;;;;;;;;6.20;99.90;;;;;;5094779;28;20936;-85
2021/01/28 12:42:08;;;;;;;;;;;6.20;99.90;;;;;;5096615;28;20267;-85
2021/01/28 12:44:33;;;;;;;;;;;6.20;99.90;;;;;;5096388;28;20363;-85
2021/01/28 12:46:59;;;;;;;;;;;6.20;99.90;;;;;;5095981;28;19909;-86
2021/01/28 12:49:25;;;;;;;;;;;6.20;99.90;;;;;;5107307;28;20279;-86
2021/01/28 12:51:53;;;;;;;;;;;6.20;99.90;;;;;;5092591;28;19916;-87
2021/01/28 12:54:22;;;;;;;;;;;6.30;99.90;;;;;;5093481;28;19912;-86
2021/01/28 12:56:48;;;;;;;;;;;6.20;99.90;;;;;;5092329;28;19977;-87
2021/01/28 12:59:14;;;;;;;;;;;6.20;99.90;;;;;;5098545;28;20348;-87
2021/01/28 13:01:39;;;;;;;;;;;6.20;99.90;;;;;;5123553;28;19926;-87
2021/01/28 13:04:05;;;;;;;;;;;6.20;99.90;;;;;;5107812;28;19912;-87
2021/01/28 13:06:30;;;;;;;;;;;6.20;99.90;;;;;;5098030;28;19908;-87
2021/01/28 13:08:56;;;;;;;;;;;6.30;99.90;;;;;;5113982;28;19956;-86
2021/01/28 13:11:22;;;;;;;;;;;6.20;99.90;;;;;;5108312;28;20264;-87
2021/01/28 13:13:47;;;;;;;;;;;6.30;99.90;;;;;;5098784;28;19914;-86
2021/01/28 13:16:13;;;;;;;;;;;6.30;99.90;;;;;;5106533;28;19914;-86
2021/01/28 13:18:38;;;;;;;;;;;6.30;99.90;;;;;;5117228;28;19915;-87
2021/01/28 13:21:04;;;;;;;;;;;6.30;99.90;;;;;;5113286;28;19947;-87
2021/01/28 13:23:29;;;;;;;;;;;6.30;99.90;;;;;;5094988;28;20517;-86
2021/01/28 13:25:55;;;;;;;;;;;6.30;99.90;;;;;;5093748;28;19959;-86
2021/01/28 13:28:20;;;;;;;;;;;6.30;99.90;;;;;;5097346;28;19919;-86
2021/01/28 13:30:46;;;;;;;;;;;6.40;99.90;;;;;;5100690;28;19914;-86
2021/01/28 13:33:12;;;;;;;;;;;6.40;99.90;;;;;;5114062;28;20343;-86
2021/01/28 13:35:38;;;;;;;;;;;6.40;99.90;;;;;;5128018;27;20226;-87
2021/01/28 13:38:03;;;;;;;;;;;6.40;99.90;;;;;;5109168;27;19943;-86
2021/01/28 13:40:30;;;;;;;;;;;6.50;99.90;;;;;;5108032;28;19915;-85
2021/01/28 13:42:55;;;;;;;;;;;6.40;99.90;;;;;;5124993;27;19915;-86
2021/01/28 13:45:22;;;;;;;;;;;6.40;99.90;;;;;;5117028;28;19907;-86
2021/01/28 13:47:47;;;;;;;;;;;6.30;99.90;;;;;;5135968;27;19908;-86
2021/01/28 13:50:15;;;;;;;;;;;6.30;99.90;;;;;;5124965;27;20335;-87
2021/01/28 13:52:40;;;;;;;;;;;6.30;99.90;;;;;;5114416;27;20353;-85
2021/01/28 13:55:07;;;;;;;;;;;6.30;99.90;;;;;;5112171;27;19912;-87
2021/01/28 13:57:32;;;;;;;;;;;6.30;99.90;;;;;;5108464;28;19933;-85
2021/01/28 13:59:58;;;;;;;;;;;6.30;99.90;;;;;;5116060;28;20367;-86
2021/01/28 14:02:23;;;;;;;;;;;6.30;99.90;;;;;;5122272;27;19914;-86
2021/01/28 14:04:49;;;;;;;;;;;6.30;99.90;;;;;;5116393;27;19922;-86
2021/01/28 14:07:14;;;;;;;;;;;6.30;99.90;;;;;;5111994;28;20412;-86
2021/01/28 14:09:39;;;;;;;;;;;6.20;99.90;;;;;;5116639;27;20448;-84
2021/01/28 14:12:05;;;;;;;;;;;6.20;99.90;;;;;;5121552;27;20274;-85
2021/01/28 14:14:30;;;;;;;;;;;6.20;99.90;;;;;;5117542;27;20001;-85
2021/01/28 14:16:56;;;;;;;;;;;6.20;99.90;;;;;;5099398;27;19915;-86
2021/01/28 14:19:21;;;;;;;;;;;6.20;99.90;;;;;;5126377;27;19920;-86
2021/01/28 14:21:47;;;;;;;;;;;6.20;99.90;;;;;;5111223;27;20278;-84
2021/01/28 14:24:13;;;;;;;;;;;6.20;99.90;;;;;;5103353;27;19934;-85
2021/01/28 14:26:39;;;;;;;;;;;6.20;99.90;;;;;;5116747;27;19911;-85
2021/01/28 14:29:04;;;;;;;;;;;6.20;99.90;;;;;;5134215;27;20362;-83
2021/01/28 14:31:30;;;;;;;;;;;6.30;99.90;;;;;;5135448;27;19915;-85
2021/01/28 14:33:55;;;;;;;;;;;6.30;99.90;;;;;;5133396;27;20357;-85
2021/01/28 14:36:21;;;;;;;;;;;6.30;99.90;;;;;;5097210;28;20366;-84
2021/01/28 14:38:46;;;;;;;;;;;6.20;99.90;;;;;;5100625;28;19912;-84
2021/01/28 14:41:12;;;;;;;;;;;6.20;99.90;;;;;;5115223;28;20255;-84
2021/01/28 14:43:37;;;;;;;;;;;6.20;99.90;;;;;;5097249;28;19907;-84